Time;durP1;ratioP1;P1;durP2;ratioP2;P2;SDS_P1;SDS_P2;PMS_P1;PMS_P2;Temp;Humidity;BMP_temperature;BMP_pressure;BME280_temperature;BME280_humidity;BME280_pressure;Samples;Min_cycle;Max_cycle;Signal;HPM_P1;HPM_P2
2022/08/29 00:01:22;;;;;;;53.50;22.38;;;;;;;14.14;82.54;102181.50;5047863;28;20025;-87
2022/08/29 00:03:48;;;;;;;46.80;21.40;;;;;;;14.13;82.07;102185.84;5048575;28;20033;-86
2022/08/29 00:06:13;;;;;;;51.97;22.50;;;;;;;14.12;82.15;102185.91;5050393;28;20028;-86
2022/08/29 00:08:38;;;;;;;46.30;22.13;;;;;;;14.07;82.89;102180.75;5043733;28;20994;-86
2022/08/29 00:11:05;;;;;;;52.92;21.90;;;;;;;14.02;82.42;102179.97;5045196;28;20048;-86
2022/08/29 00:13:31;;;;;;;49.10;20.90;;;;;;;14.03;83.35;102183.44;5046465;28;20029;-86
2022/08/29 00:15:56;;;;;;;47.15;21.70;;;;;;;13.95;82.92;102180.94;5030065;28;20402;-87
2022/08/29 00:18:22;;;;;;;50.75;22.02;;;;;;;13.90;83.45;102177.56;5041196;28;20056;-87
2022/08/29 00:20:48;;;;;;;48.00;21.35;;;;;;;13.85;82.89;102180.22;5049415;28;20029;-87
2022/08/29 00:23:13;;;;;;;48.15;21.20;;;;;;;13.84;83.13;102180.28;5045439;28;20382;-87
2022/08/29 00:25:39;;;;;;;46.63;21.33;;;;;;;13.74;83.81;102168.25;5050738;28;20509;-87
2022/08/29 00:28:05;;;;;;;49.67;21.30;;;;;;;13.74;83.92;102178.69;5043953;28;20016;-87
2022/08/29 00:30:31;;;;;;;45.58;20.98;;;;;;;13.70;83.89;102177.00;5048963;28;20283;-87
2022/08/29 00:32:56;;;;;;;44.75;20.50;;;;;;;13.66;84.22;102170.09;5049095;28;20113;-86
2022/08/29 00:35:25;;;;;;;43.10;20.75;;;;;;;13.63;83.97;102170.16;5045465;28;20112;-86
2022/08/29 00:37:53;;;;;;;45.88;20.27;;;;;;;13.61;84.26;102179.75;5041468;28;20559;-87
2022/08/29 00:40:22;;;;;;;45.13;20.00;;;;;;;13.54;84.51;102171.16;5044819;28;20031;-86
2022/08/29 00:42:48;;;;;;;44.83;19.77;;;;;;;13.51;84.68;102181.59;5042268;28;20504;-87
2022/08/29 00:45:16;;;;;;;41.85;19.65;;;;;;;13.47;84.94;102187.75;5040555;28;20120;-87
2022/08/29 00:47:51;;;;;;;44.00;19.40;;;;;;;13.41;85.03;102200.88;5038661;28;20120;-87
2022/08/29 00:50:30;;;;;;;42.63;19.25;;;;;;;13.36;84.37;102193.13;5039218;28;20021;-86
2022/08/29 00:52:56;;;;;;;42.80;18.45;;;;;;;13.31;85.01;102194.91;5036839;28;20175;-87
2022/08/29 00:55:25;;;;;;;44.60;18.60;;;;;;;13.28;85.50;102199.31;5048291;28;20027;-87
2022/08/29 00:57:55;;;;;;;39.92;18.50;;;;;;;13.26;85.46;102201.94;5049512;28;20450;-87
2022/08/29 01:00:22;;;;;;;39.55;18.33;;;;;;;13.21;86.03;102187.25;5045064;28;20029;-87
2022/08/29 01:02:47;;;;;;;40.05;18.77;;;;;;;13.16;86.05;102186.47;5037082;28;20032;-86
2022/08/29 01:05:16;;;;;;;38.83;19.52;;;;;;;13.15;86.22;102187.34;5042849;28;20021;-86
2022/08/29 01:07:43;;;;;;;45.92;21.52;;;;;;;13.13;86.40;102191.69;5037989;28;20068;-87
2022/08/29 01:10:09;;;;;;;53.60;23.42;;;;;;;13.10;86.45;102189.13;5045334;28;20035;-87
2022/08/29 01:12:35;;;;;;;52.40;26.45;;;;;;;13.08;86.51;102204.75;5042180;28;20384;-87
2022/08/29 01:15:08;;;;;;;54.25;25.83;;;;;;;13.08;86.38;102202.16;5053973;28;21951;-87
2022/08/29 01:17:43;;;;;;;55.08;25.45;;;;;;;13.05;85.85;102196.97;5032367;28;20576;-87
2022/08/29 01:20:23;;;;;;;72.43;33.90;;;;;;;13.01;86.33;102200.50;5041310;28;20128;-86
2022/08/29 01:23:01;;;;;;;78.45;36.17;;;;;;;12.98;86.50;102187.50;5038197;28;20024;-87
2022/08/29 01:25:32;;;;;;;81.40;34.70;;;;;;;12.95;86.70;102192.75;5053651;28;20066;-87
2022/08/29 01:28:14;;;;;;;73.63;35.88;;;;;;;12.92;86.73;102196.25;5036932;28;20036;-87
2022/08/29 01:31:04;;;;;;;74.78;34.92;;;;;;;12.91;86.36;102196.25;5038958;28;20016;-87
2022/08/29 01:33:41;;;;;;;78.50;34.67;;;;;;;12.90;86.52;102200.59;5044524;28;20170;-87
2022/08/29 01:36:09;;;;;;;76.00;34.35;;;;;;;12.86;86.82;102193.72;5043837;28;20393;-87
2022/08/29 01:38:35;;;;;;;68.75;32.70;;;;;;;12.84;87.27;102199.81;5038463;28;20059;-86
2022/08/29 01:41:01;;;;;;;69.57;30.65;;;;;;;12.79;87.31;102192.06;5047345;28;20125;-87
2022/08/29 01:43:28;;;;;;;64.88;29.45;;;;;;;12.78;88.11;102194.69;5046469;28;20112;-87
2022/08/29 01:45:53;;;;;;;65.82;30.73;;;;;;;12.72;88.28;102186.94;5034457;28;20025;-87
2022/08/29 01:48:20;;;;;;;65.97;28.70;;;;;;;12.71;88.20;102191.28;5037881;28;20060;-87
2022/08/29 01:50:45;;;;;;;62.33;28.52;;;;;;;12.66;88.19;102187.88;5038355;28;20453;-86
2022/08/29 01:53:11;;;;;;;59.75;28.27;;;;;;;12.65;88.79;102189.63;5042315;28;20589;-86
2022/08/29 01:55:37;;;;;;;54.42;26.45;;;;;;;12.63;88.52;102180.94;5037217;28;20036;-87
2022/08/29 01:58:03;;;;;;;49.67;24.95;;;;;;;12.58;88.88;102177.56;5036204;28;20028;-87
2022/08/29 02:00:30;;;;;;;42.90;21.35;;;;;;;12.56;89.11;102187.09;5035144;28;20028;-85
2022/08/29 02:02:59;;;;;;;42.95;20.60;;;;;;;12.57;89.32;102183.63;5041279;28;20087;-84
2022/08/29 02:05:24;;;;;;;38.40;19.30;;;;;;;12.55;89.31;102189.75;5041974;28;20106;-85
2022/08/29 02:07:50;;;;;;;36.72;17.55;;;;;;;12.54;89.57;102188.88;5044462;28;20028;-85
2022/08/29 02:10:15;;;;;;;35.08;17.23;;;;;;;12.51;88.90;102178.50;5036704;28;20132;-85
2022/08/29 02:12:42;;;;;;;31.88;15.85;;;;;;;12.55;89.42;102189.75;5046173;28;20051;-85
2022/08/29 02:15:09;;;;;;;29.90;15.32;;;;;;;12.49;89.82;102180.25;5035493;28;20105;-85
2022/08/29 02:17:35;;;;;;;30.08;15.10;;;;;;;12.50;89.49;102186.31;5045656;28;20025;-85
2022/08/29 02:20:01;;;;;;;30.45;15.05;;;;;;;12.49;89.87;102185.44;5049078;28;20039;-85
2022/08/29 02:22:27;;;;;;;27.13;14.13;;;;;;;12.47;89.83;102186.34;5035334;28;20052;-85
2022/08/29 02:24:52;;;;;;;31.98;14.32;;;;;;;12.43;89.47;102185.50;5039403;28;20147;-85
2022/08/29 02:27:17;;;;;;;31.05;14.13;;;;;;;12.41;90.15;102183.81;5046667;28;20486;-84
2022/08/29 02:29:42;;;;;;;29.20;14.02;;;;;;;12.39;90.18;102194.22;5043130;28;20020;-87
2022/08/29 02:32:11;;;;;;;27.33;13.63;;;;;;;12.38;90.24;102199.44;5046017;28;20409;-86
2022/08/29 02:34:37;;;;;;;24.92;13.27;;;;;;;12.37;90.27;102201.16;5048062;28;20737;-87
2022/08/29 02:37:04;;;;;;;22.83;12.18;;;;;;;12.36;90.29;102191.63;5040361;28;20112;-87
2022/08/29 02:39:29;;;;;;;26.40;12.57;;;;;;;12.35;90.46;102196.88;5038550;28;20064;-86
2022/08/29 02:41:55;;;;;;;27.80;12.80;;;;;;;12.36;90.54;102198.56;5043237;28;20049;-87
2022/08/29 02:44:20;;;;;;;28.52;13.52;;;;;;;12.35;90.56;102202.06;5037778;28;20624;-86
2022/08/29 02:46:46;;;;;;;28.97;13.83;;;;;;;12.33;89.87;102207.28;5043440;28;20474;-87
2022/08/29 02:49:11;;;;;;;32.20;14.80;;;;;;;12.27;90.63;102204.75;5048467;28;20299;-87
2022/08/29 02:51:37;;;;;;;29.40;14.77;;;;;;;12.31;90.02;102208.16;5035095;28;20431;-86
2022/08/29 02:54:02;;;;;;;37.77;16.07;;;;;;;12.30;90.39;102211.63;5043365;28;20340;-87
2022/08/29 02:56:28;;;;;;;36.45;16.15;;;;;;;12.29;90.90;102210.75;5047590;28;20768;-87
2022/08/29 02:58:54;;;;;;;35.22;16.00;;;;;;;12.26;91.24;102208.22;5045199;28;20476;-85
2022/08/29 03:01:21;;;;;;;34.97;15.80;;;;;;;12.27;90.63;102207.34;5047204;28;20033;-85
2022/08/29 03:03:48;;;;;;;33.67;16.17;;;;;;;12.27;90.89;102208.22;5050081;28;20032;-85
2022/08/29 03:06:13;;;;;;;40.97;16.92;;;;;;;12.26;91.53;102203.88;5042044;28;20049;-85
2022/08/29 03:08:39;;;;;;;39.10;16.20;;;;;;;12.25;90.97;102207.34;5041632;28;20029;-85
2022/08/29 03:11:05;;;;;;;36.60;16.10;;;;;;;12.24;91.19;102199.56;5046554;28;20318;-85
2022/08/29 03:13:32;;;;;;;35.78;16.55;;;;;;;12.25;91.16;102196.09;5051546;28;20118;-85
2022/08/29 03:15:57;;;;;;;34.70;14.68;;;;;;;12.24;90.71;102197.81;5042271;28;20512;-85
2022/08/29 03:18:23;;;;;;;32.88;14.57;;;;;;;12.24;91.30;102192.63;5048757;28;20024;-85
2022/08/29 03:20:48;;;;;;;31.42;14.27;;;;;;;12.21;91.66;102195.22;5053390;28;20115;-85
2022/08/29 03:23:14;;;;;;;27.95;13.90;;;;;;;12.22;91.01;102190.91;5048593;28;20048;-85
2022/08/29 03:25:39;;;;;;;27.73;13.98;;;;;;;12.21;90.92;102195.22;5047233;28;20031;-85
2022/08/29 03:28:05;;;;;;;29.45;14.30;;;;;;;12.20;91.58;102195.28;5049501;28;20025;-85
2022/08/29 03:30:30;;;;;;;27.60;13.20;;;;;;;12.19;91.29;102194.41;5051037;28;20029;-86
2022/08/29 03:32:56;;;;;;;31.08;12.88;;;;;;;12.17;91.37;102195.28;5053379;28;20049;-87
2022/08/29 03:35:22;;;;;;;25.52;11.80;;;;;;;12.12;91.60;102194.47;5054321;28;20119;-87
2022/08/29 03:37:48;;;;;;;25.38;11.35;;;;;;;12.14;91.99;102190.13;5049027;28;20062;-87
2022/08/29 03:40:14;;;;;;;20.02;10.57;;;;;;;12.10;91.90;102189.28;5048822;28;20043;-87
2022/08/29 03:42:41;;;;;;;24.75;10.32;;;;;;;12.09;92.23;102187.53;5045464;28;20029;-86
2022/08/29 03:45:09;;;;;;;19.70;9.30;;;;;;;12.08;92.22;102188.41;5041365;28;20025;-88
2022/08/29 03:47:34;;;;;;;19.13;8.68;;;;;;;12.08;91.68;102187.56;5041599;28;20060;-86
2022/08/29 03:50:00;;;;;;;14.85;7.80;;;;;;;12.04;91.99;102181.53;5047475;28;20101;-87
2022/08/29 03:52:25;;;;;;;13.40;7.07;;;;;;;12.04;92.23;102178.94;5049129;28;20025;-87
2022/08/29 03:54:51;;;;;;;16.92;8.00;;;;;;;12.02;92.49;102178.06;5050264;28;20029;-86
2022/08/29 03:57:16;;;;;;;25.42;9.80;;;;;;;12.02;92.17;102177.22;5043831;28;20487;-86
2022/08/29 03:59:42;;;;;;;23.58;8.95;;;;;;;11.97;92.50;102177.25;5046080;28;20061;-87
2022/08/29 04:02:08;;;;;;;18.90;8.43;;;;;;;11.97;92.22;102169.47;5044713;28;20021;-87
2022/08/29 04:07:17;;;;;;;16.20;8.52;;;;;;;11.93;92.29;102162.59;5041988;28;20048;-87
2022/08/29 04:09:42;;;;;;;16.50;8.52;;;;;;;11.92;92.49;102165.19;5048293;28;20029;-87
2022/08/29 04:12:12;;;;;;;21.07;8.43;;;;;;;11.91;92.34;102160.84;5047188;28;20036;-86
2022/08/29 04:14:39;;;;;;;19.35;7.80;;;;;;;11.87;92.48;102166.06;5047958;28;20319;-87
2022/08/29 04:17:05;;;;;;;14.45;7.50;;;;;;;11.85;92.48;102162.63;5048454;28;20534;-87
2022/08/29 04:19:32;;;;;;;14.05;7.55;;;;;;;11.83;92.51;102168.72;5039827;28;20040;-87
2022/08/29 04:21:57;;;;;;;14.82;7.13;;;;;;;11.85;92.95;102174.75;5031056;28;20116;-87
2022/08/29 04:24:23;;;;;;;13.98;7.30;;;;;;;11.84;92.68;102173.03;5042945;28;20167;-87
2022/08/29 04:26:49;;;;;;;16.02;7.10;;;;;;;11.80;92.81;102166.97;5048246;28;20079;-87
2022/08/29 04:29:14;;;;;;;14.48;6.80;;;;;;;11.78;92.66;102173.94;5039575;28;20037;-87
2022/08/29 04:31:41;;;;;;;13.43;6.67;;;;;;;11.78;92.38;102173.09;5035118;28;20024;-87
2022/08/29 04:34:09;;;;;;;17.98;6.80;;;;;;;11.78;92.57;102173.94;5040572;28;20315;-87
2022/08/29 04:36:37;;;;;;;16.52;7.57;;;;;;;11.75;92.35;102176.56;5048399;28;20132;-87
2022/08/29 04:39:04;;;;;;;14.10;7.63;;;;;;;11.75;92.85;102179.16;5039975;28;20025;-87
2022/08/29 04:41:29;;;;;;;19.05;8.40;;;;;;;11.72;92.55;102170.50;5041095;28;20112;-87
2022/08/29 04:43:55;;;;;;;20.48;9.30;;;;;;;11.73;92.83;102178.28;5042567;28;20112;-88
2022/08/29 04:46:20;;;;;;;21.75;10.02;;;;;;;11.73;92.92;102182.63;5047535;28;20025;-87
2022/08/29 04:48:46;;;;;;;20.98;9.75;;;;;;;11.70;93.10;102183.50;5037936;28;20116;-87
2022/08/29 04:51:12;;;;;;;19.42;9.82;;;;;;;11.66;93.20;102186.13;5041396;28;20049;-88
2022/08/29 04:53:37;;;;;;;17.30;8.65;;;;;;;11.66;93.31;102184.41;5037204;28;20016;-86
2022/08/29 04:56:09;;;;;;;15.38;7.75;;;;;;;11.66;93.49;102189.59;5048325;28;20111;-87
2022/08/29 04:58:37;;;;;;;15.18;7.32;;;;;;;11.68;93.72;102192.16;5045049;28;20513;-87
2022/08/29 05:01:03;;;;;;;13.95;6.80;;;;;;;11.67;93.56;102191.28;5047078;28;20474;-87
2022/08/29 05:03:29;;;;;;;16.35;7.68;;;;;;;11.66;93.88;102184.41;5049430;28;20040;-86
2022/08/29 05:05:56;;;;;;;14.40;6.57;;;;;;;11.72;93.86;102202.53;5049106;28;20021;-87
2022/08/29 05:08:22;;;;;;;14.52;6.10;;;;;;;11.70;93.51;102199.06;5046454;28;20028;-86
2022/08/29 05:10:47;;;;;;;13.55;6.18;;;;;;;11.70;93.53;102196.47;5036695;28;20025;-87
2022/08/29 05:13:13;;;;;;;12.05;6.15;;;;;;;11.74;93.85;102200.81;5049901;28;20112;-87
2022/08/29 05:15:38;;;;;;;13.88;5.95;;;;;;;11.78;93.17;102197.31;5042789;28;20025;-87
2022/08/29 05:18:04;;;;;;;12.70;5.67;;;;;;;11.80;93.10;102190.38;5042675;28;20025;-87
2022/08/29 05:20:31;;;;;;;12.00;5.75;;;;;;;11.86;93.80;102203.34;5043807;28;20349;-87
2022/08/29 05:22:56;;;;;;;13.40;6.03;;;;;;;11.93;93.90;102195.50;5043092;28;20592;-87
2022/08/29 05:25:22;;;;;;;14.43;5.70;;;;;;;11.98;93.53;102202.38;5039911;28;20036;-87
2022/08/29 05:27:48;;;;;;;10.40;5.93;;;;;;;12.00;93.57;102200.63;5049466;28;20033;-86
2022/08/29 05:30:15;;;;;;;11.32;5.45;;;;;;;12.04;93.63;102206.66;5049295;28;20056;-87
2022/08/29 05:32:40;;;;;;;12.80;5.72;;;;;;;12.10;93.95;102204.88;5045554;28;20026;-87
2022/08/29 05:35:06;;;;;;;12.20;5.95;;;;;;;12.10;93.59;102201.41;5040947;28;20051;-88
2022/08/29 05:37:31;;;;;;;14.38;6.00;;;;;;;12.17;93.00;102208.28;5047428;28;20036;-87
2022/08/29 05:39:57;;;;;;;13.13;6.07;;;;;;;12.24;93.75;102216.03;5046921;28;20421;-87
2022/08/29 05:42:22;;;;;;;14.23;5.90;;;;;;;12.31;93.70;102209.03;5048164;28;20285;-88
2022/08/29 05:44:48;;;;;;;11.30;5.60;;;;;;;12.36;93.84;102204.63;5045867;28;20036;-87
2022/08/29 05:47:16;;;;;;;18.48;5.90;;;;;;;12.44;93.46;102215.84;5035585;28;20041;-86
2022/08/29 05:49:42;;;;;;;15.45;6.07;;;;;;;12.54;93.48;102214.03;5034501;28;20035;-87
2022/08/29 05:52:08;;;;;;;15.60;6.30;;;;;;;12.57;93.83;102214.84;5046642;28;20116;-87
2022/08/29 05:54:37;;;;;;;11.90;6.22;;;;;;;12.63;93.22;102213.91;5036117;28;20036;-87
2022/08/29 05:57:03;;;;;;;13.68;6.05;;;;;;;12.66;92.76;102214.75;5035451;28;20036;-87
2022/08/29 05:59:28;;;;;;;15.13;6.25;;;;;;;12.72;92.41;102218.16;5031995;28;20036;-87
2022/08/29 06:01:54;;;;;;;10.70;5.95;;;;;;;12.79;92.46;102220.69;5034632;28;20025;-87
2022/08/29 06:04:19;;;;;;;10.48;6.10;;;;;;;12.86;92.70;102224.94;5055959;28;20477;-87
2022/08/29 06:06:45;;;;;;;15.10;6.60;;;;;;;12.94;92.84;102241.34;5053135;28;20025;-87
2022/08/29 06:09:11;;;;;;;10.82;5.95;;;;;;;12.99;91.79;102236.09;5053072;28;20064;-87
2022/08/29 06:11:37;;;;;;;13.30;6.38;;;;;;;13.06;92.21;102235.13;5030942;28;20087;-87
2022/08/29 06:14:03;;;;;;;16.08;6.28;;;;;;;13.13;92.34;102238.56;5032424;28;20021;-87
2022/08/29 06:16:30;;;;;;;13.70;6.43;;;;;;;13.20;92.13;102235.88;5047518;28;20421;-89
2022/08/29 06:18:55;;;;;;;13.93;6.03;;;;;;;13.25;91.60;102223.63;5051571;28;20059;-88
2022/08/29 06:21:21;;;;;;;13.65;6.18;;;;;;;13.34;91.93;102226.13;5046925;28;20048;-88
2022/08/29 06:23:47;;;;;;;16.80;7.18;;;;;;;13.40;90.84;102225.19;5057892;28;20540;-87
2022/08/29 06:26:13;;;;;;;14.98;7.10;;;;;;;13.51;90.94;102238.91;5060921;28;20453;-88
2022/08/29 06:28:41;;;;;;;13.68;6.53;;;;;;;13.55;91.26;102232.81;5055286;28;21715;-88
2022/08/29 06:31:09;;;;;;;12.48;6.80;;;;;;;13.60;91.02;102241.41;5048543;28;20033;-88
2022/08/29 06:33:35;;;;;;;13.80;6.53;;;;;;;13.66;91.07;102224.81;5054355;28;20029;-87
2022/08/29 06:36:02;;;;;;;15.98;7.13;;;;;;;13.72;90.92;102235.16;5048802;28;20039;-88
2022/08/29 06:38:27;;;;;;;16.73;6.93;;;;;;;13.80;91.04;102228.09;5047535;28;20013;-88
2022/08/29 06:40:53;;;;;;;15.40;6.77;;;;;;;13.85;90.36;102234.13;5063686;28;21386;-88
2022/08/29 06:43:18;;;;;;;18.48;7.18;;;;;;;13.91;91.19;102228.81;5048125;28;20295;-88
2022/08/29 06:45:44;;;;;;;12.73;6.22;;;;;;;13.96;90.50;102231.34;5048914;28;20432;-88
2022/08/29 06:48:09;;;;;;;12.60;6.57;;;;;;;14.06;90.29;102245.94;5052885;28;20037;-88
2022/08/29 06:50:39;;;;;;;13.27;6.20;;;;;;;14.07;87.48;102234.63;5038626;28;20275;-88
2022/08/29 06:53:06;;;;;;;14.13;6.05;;;;;;;14.12;88.37;102243.25;5052739;28;20483;-87
2022/08/29 06:55:34;;;;;;;19.38;6.47;;;;;;;14.17;88.16;102249.25;5042360;28;20104;-88
2022/08/29 06:57:59;;;;;;;25.15;6.88;;;;;;;14.28;87.92;102251.69;5046046;28;20024;-89
2022/08/29 07:00:24;;;;;;;15.05;6.47;;;;;;;14.36;87.55;102249.81;5051417;28;20382;-90
2022/08/29 07:02:51;;;;;;;17.23;6.75;;;;;;;14.51;89.02;102253.06;5045810;28;20032;-88
2022/08/29 07:05:16;;;;;;;17.60;6.78;;;;;;;14.61;87.84;102248.53;5047905;28;20124;-88
2022/08/29 07:07:41;;;;;;;18.70;7.20;;;;;;;14.70;86.99;102248.38;5048016;28;20111;-88
2022/08/29 07:10:08;;;;;;;15.53;6.73;;;;;;;14.81;87.30;102254.25;5044653;28;20039;-89
2022/08/29 07:12:34;;;;;;;14.63;6.80;;;;;;;14.87;86.20;102258.50;5042395;28;20287;-89
2022/08/29 07:15:00;;;;;;;16.75;6.13;;;;;;;14.94;83.70;102263.56;5045978;28;20029;-87
2022/08/29 07:17:27;;;;;;;14.40;6.50;;;;;;;15.01;81.29;102262.56;5046850;28;20079;-89
2022/08/29 07:19:53;;;;;;;19.42;6.70;;;;;;;15.12;83.01;102262.38;5050130;28;20029;-89
2022/08/29 07:22:18;;;;;;;11.98;5.82;;;;;;;15.27;84.13;102253.38;5057864;28;20444;-89
2022/08/29 07:24:43;;;;;;;14.35;6.32;;;;;;;15.40;80.96;102247.84;5042183;28;20071;-88
2022/08/29 07:27:10;;;;;;;15.63;6.37;;;;;;;15.50;79.16;102248.50;5045282;28;20116;-88
2022/08/29 07:29:37;;;;;;;12.63;5.80;;;;;;;15.61;79.45;102251.78;5048912;28;20390;-88
2022/08/29 07:32:02;;;;;;;15.70;6.05;;;;;;;15.78;80.44;102244.41;5048750;28;20040;-87
2022/08/29 07:34:27;;;;;;;19.50;7.30;;;;;;;15.95;79.07;102243.16;5048955;28;20025;-88
2022/08/29 07:36:53;;;;;;;15.75;6.85;;;;;;;16.08;78.48;102242.84;5048509;28;20021;-89
2022/08/29 07:39:19;;;;;;;16.67;6.90;;;;;;;16.20;78.03;102229.47;5048929;28;20107;-89
2022/08/29 07:41:44;;;;;;;15.10;6.10;;;;;;;16.38;75.83;102229.88;5047282;28;20329;-88
2022/08/29 07:44:11;;;;;;;12.15;5.45;;;;;;;16.47;76.20;102238.38;5047690;28;20029;-88
2022/08/29 07:46:37;;;;;;;12.98;5.80;;;;;;;16.56;75.74;102232.91;5048817;28;20032;-88
2022/08/29 07:49:02;;;;;;;13.10;5.00;;;;;;;16.68;70.47;102236.97;5049155;28;20049;-88
2022/08/29 07:51:28;;;;;;;12.45;5.15;;;;;;;16.81;73.98;102240.13;5051496;28;20444;-88
2022/08/29 07:53:54;;;;;;;12.63;4.00;;;;;;;16.91;67.91;102242.47;5052522;28;20457;-87
2022/08/29 07:56:27;;;;;;;8.10;3.83;;;;;;;16.98;66.72;102237.91;5050954;28;20487;-88
2022/08/29 07:58:53;;;;;;;9.55;3.75;;;;;;;16.97;66.88;102239.66;5052686;28;20040;-88
2022/08/29 08:01:19;;;;;;;11.50;4.05;;;;;;;17.06;66.70;102235.06;5052199;28;20025;-88
2022/08/29 08:03:45;;;;;;;9.85;3.60;;;;;;;17.17;66.48;102228.63;5052311;28;20029;-88
2022/08/29 08:06:10;;;;;;;10.60;4.18;;;;;;;17.26;68.20;102236.19;5051982;28;20497;-88
2022/08/29 08:08:36;;;;;;;14.02;3.60;;;;;;;17.41;67.53;102231.41;5052152;28;20033;-88
2022/08/29 08:11:04;;;;;;;8.98;3.50;;;;;;;17.49;64.15;102230.28;5050544;28;20067;-89
2022/08/29 08:13:30;;;;;;;12.38;3.42;;;;;;;17.55;67.10;102229.22;5050498;28;20094;-87
2022/08/29 08:15:55;;;;;;;12.10;3.67;;;;;;;17.67;66.27;102228.91;5051819;28;20104;-89
2022/08/29 08:18:21;;;;;;;13.10;3.33;;;;;;;17.80;63.08;102227.63;5051327;28;20020;-88
2022/08/29 08:20:47;;;;;;;8.35;3.55;;;;;;;17.89;62.35;102237.78;5051687;28;20032;-88
2022/08/29 08:23:16;;;;;;;10.07;3.88;;;;;;;17.98;60.44;102234.88;5050128;28;20040;-89
2022/08/29 08:25:43;;;;;;;11.35;3.92;;;;;;;18.00;63.94;102237.47;5051824;28;20048;-89
2022/08/29 08:28:09;;;;;;;11.07;3.78;;;;;;;18.02;61.55;102240.88;5048869;28;20620;-88
2022/08/29 08:30:34;;;;;;;11.48;3.63;;;;;;;18.11;60.66;102246.69;5040886;28;20157;-88
2022/08/29 08:32:59;;;;;;;8.15;3.35;;;;;;;18.22;59.90;102248.97;5049943;28;20397;-89
2022/08/29 08:35:25;;;;;;;8.48;3.22;;;;;;;18.24;60.52;102244.53;5051462;28;20021;-88
2022/08/29 08:37:51;;;;;;;7.20;3.13;;;;;;;18.26;58.57;102237.47;5051163;28;20021;-88
2022/08/29 08:40:21;;;;;;;8.23;2.97;;;;;;;18.26;60.68;102239.25;5050564;28;20759;-88
2022/08/29 08:42:49;;;;;;;10.90;3.42;;;;;;;18.28;58.61;102243.53;5050794;28;20255;-88
2022/08/29 08:45:18;;;;;;;9.13;3.92;;;;;;;18.22;58.99;102248.97;5050042;28;20029;-89
2022/08/29 08:47:49;;;;;;;8.48;3.78;;;;;;;18.22;58.67;102245.50;5051094;28;20057;-88
2022/08/29 08:50:49;;;;;;;12.05;3.55;;;;;;;18.27;61.32;102256.72;5051275;28;20045;-89
2022/08/29 08:53:42;;;;;;;11.63;3.85;;;;;;;18.23;61.63;102250.69;5049816;28;20127;-89
2022/08/29 08:56:21;;;;;;;10.02;3.80;;;;;;;18.14;60.75;102248.38;5052328;28;20398;-88
2022/08/29 08:58:54;;;;;;;10.75;4.32;;;;;;;18.25;59.88;102243.63;5051175;28;20064;-89
2022/08/29 09:01:25;;;;;;;15.30;4.63;;;;;;;18.33;61.32;102246.00;5050761;28;20539;-88
2022/08/29 09:04:28;;;;;;;12.77;4.35;;;;;;;18.47;61.67;102249.03;5051156;28;20799;-89
2022/08/29 09:07:13;;;;;;;15.63;4.38;;;;;;;18.55;61.53;102247.00;5049192;28;20497;-89
2022/08/29 09:10:04;;;;;;;9.43;3.40;;;;;;;18.74;59.68;102236.72;5049153;28;20047;-88
2022/08/29 09:13:03;;;;;;;9.82;3.55;;;;;;;18.90;59.23;102246.63;5049578;28;20031;-89
2022/08/29 09:15:50;;;;;;;8.75;3.50;;;;;;;19.05;60.05;102253.09;5050752;28;20029;-88
2022/08/29 09:18:40;;;;;;;8.63;4.00;;;;;;;19.06;60.41;102252.19;5049517;28;20029;-86
2022/08/29 09:21:13;;;;;;;11.57;3.80;;;;;;;19.06;59.00;102248.69;5050850;28;20025;-86
2022/08/29 09:23:44;;;;;;;10.20;3.60;;;;;;;19.14;55.91;102257.16;5050838;28;20025;-85
2022/08/29 09:26:11;;;;;;;22.08;4.45;;;;;;;19.09;57.87;102254.72;5050362;28;20442;-86
2022/08/29 09:28:38;;;;;;;19.13;4.82;;;;;;;19.16;57.94;102257.97;5050682;28;20029;-86
2022/08/29 09:31:23;;;;;;;13.30;3.60;;;;;;;19.30;58.56;102250.44;5049023;28;20475;-86
2022/08/29 09:34:04;;;;;;;9.38;3.50;;;;;;;19.30;56.23;102247.81;5050652;28;20179;-85
2022/08/29 09:36:42;;;;;;;10.95;3.35;;;;;;;19.28;54.91;102260.16;5048956;28;20389;-86
2022/08/29 09:39:12;;;;;;;10.95;3.42;;;;;;;19.24;55.02;102254.13;5050361;28;20033;-85
2022/08/29 09:41:38;;;;;;;9.60;3.35;;;;;;;19.21;54.99;102253.41;5048346;28;20032;-85
2022/08/29 09:44:03;;;;;;;9.63;3.42;;;;;;;19.23;56.51;102264.72;5050000;28;20033;-86
2022/08/29 09:46:31;;;;;;;12.60;4.25;;;;;;;19.34;55.48;102250.25;5048725;28;20021;-86
2022/08/29 09:49:03;;;;;;;9.73;3.75;;;;;;;19.40;56.19;102249.16;5049983;28;20537;-88
2022/08/29 09:51:29;;;;;;;9.68;3.92;;;;;;;19.37;57.02;102249.28;5047099;28;20017;-89
2022/08/29 09:54:30;;;;;;;13.15;3.92;;;;;;;19.46;57.02;102253.31;5048647;28;20416;-89
2022/08/29 09:57:01;;;;;;;11.57;3.88;;;;;;;19.47;54.49;102248.03;5049559;28;20036;-89
2022/08/29 09:59:34;;;;;;;12.15;3.72;;;;;;;19.56;55.59;102255.59;5048801;28;20025;-89
2022/08/29 10:02:20;;;;;;;9.43;3.70;;;;;;;19.60;58.25;102257.19;5049561;28;20449;-89
2022/08/29 10:04:50;;;;;;;10.18;4.03;;;;;;;19.55;56.28;102250.38;5050309;28;20024;-89
2022/08/29 10:07:20;;;;;;;8.80;3.40;;;;;;;19.48;57.03;102247.13;5048426;28;20508;-89
2022/08/29 10:10:24;;;;;;;9.88;3.63;;;;;;;19.41;57.73;102253.50;5049517;28;20029;-89
2022/08/29 10:12:58;;;;;;;9.55;3.95;;;;;;;19.31;57.42;102250.34;5051240;28;20171;-89
2022/08/29 10:15:28;;;;;;;11.07;3.83;;;;;;;19.30;57.75;102245.19;5049875;28;20033;-89
2022/08/29 10:18:26;;;;;;;7.40;3.60;;;;;;;19.43;55.75;102248.19;5050027;28;20036;-89
2022/08/29 10:21:18;;;;;;;9.10;3.85;;;;;;;19.84;57.75;102236.94;5049654;28;20398;-86
2022/08/29 10:23:57;;;;;;;7.45;3.40;;;;;;;19.90;56.73;102238.47;5049569;28;20052;-86
2022/08/29 10:26:31;;;;;;;10.32;3.55;;;;;;;19.92;54.39;102229.59;5049466;28;20097;-86
2022/08/29 10:28:56;;;;;;;;;;;;;;;19.99;56.61;102232.84;5048376;28;20037;-86
2022/08/29 10:31:34;;;;;;;10.63;3.30;;;;;;;19.84;55.92;102244.00;5049251;28;19966;-86
2022/08/29 10:34:17;;;;;;;10.23;3.55;;;;;;;19.75;54.76;102246.97;5049771;28;20171;-86
2022/08/29 10:36:53;;;;;;;10.05;3.55;;;;;;;19.50;56.44;102241.81;5048015;28;20056;-86
2022/08/29 10:39:27;;;;;;;12.00;3.33;;;;;;;19.40;54.72;102243.03;5048203;28;20040;-86
2022/08/29 10:42:03;;;;;;;;;;;;;;;19.48;56.99;102238.38;5048739;28;20029;-86
2022/08/29 10:44:38;;;;;;;7.78;3.50;;;;;;;19.55;56.27;102238.09;5046942;28;19908;-86
2022/08/29 10:47:03;;;;;;;;;;;;;;;19.69;56.78;102233.16;5037051;28;20398;-86
2022/08/29 10:50:01;;;;;;;11.00;3.27;;;;;;;19.86;55.27;102232.47;5049382;28;20373;-86
2022/08/29 10:52:34;;;;;;;11.60;3.95;;;;;;;20.20;56.56;102233.75;5052676;28;20052;-86
2022/08/29 10:55:21;;;;;;;9.27;3.40;;;;;;;20.42;54.24;102229.28;5049237;28;20020;-86
2022/08/29 10:57:59;;;;;;;9.95;3.38;;;;;;;20.49;52.66;102228.97;5048969;28;20768;-86
2022/08/29 11:00:36;;;;;;;9.55;3.58;;;;;;;20.50;54.21;102225.41;5047662;28;20029;-86
2022/08/29 11:03:10;;;;;;;9.85;3.60;;;;;;;20.74;53.44;102222.66;5048997;28;20032;-86
2022/08/29 11:05:41;;;;;;;;;;;;;;;20.89;53.70;102217.53;5049771;28;20028;-86
2022/08/29 11:08:11;;;;;;;10.10;3.80;;;;;;;20.89;52.08;102211.41;5048932;28;19917;-86
2022/08/29 11:10:42;;;;;;;9.38;3.40;;;;;;;20.99;53.17;102211.84;5047904;28;20025;-86
2022/08/29 11:13:18;;;;;;;8.73;3.50;;;;;;;21.18;54.21;102204.84;5048714;28;20017;-86
2022/08/29 11:15:55;;;;;;;12.20;3.63;;;;;;;21.36;52.64;102206.63;5047875;28;20040;-86
2022/08/29 11:18:30;;;;;;;11.00;3.72;;;;;;;21.65;52.60;102207.88;5035771;28;20024;-87
2022/08/29 11:21:05;;;;;;;10.63;4.00;;;;;;;21.84;50.56;102197.25;5048736;28;20520;-87
2022/08/29 11:23:40;;;;;;;12.88;3.75;;;;;;;22.08;50.77;102192.59;5048889;28;20274;-87
2022/08/29 11:26:21;;;;;;;13.38;3.85;;;;;;;22.12;50.81;102191.50;5052287;28;20111;-86
2022/08/29 11:29:12;;;;;;;11.80;3.63;;;;;;;21.91;49.91;102188.13;5052745;28;20033;-86